Time;durP1;ratioP1;P1;durP2;ratioP2;P2;SDS_P1;SDS_P2;PMS_P1;PMS_P2;Temp;Humidity;BMP_temperature;BMP_pressure;BME280_temperature;BME280_humidity;BME280_pressure;Samples;Min_cycle;Max_cycle;Signal;HPM_P1;HPM_P2
2023/03/22 00:02:58;;;;;;;;;;;21.00;33.60;;;;;;8329949;28;19921;-44
2023/03/22 00:06:58;;;;;;;;;;;21.00;33.60;;;;;;8329987;28;19963;-44
2023/03/22 00:10:59;;;;;;;;;;;20.90;33.50;;;;;;8329286;28;19921;-45
2023/03/22 00:15:00;;;;;;;;;;;20.90;33.50;;;;;;8335165;28;20357;-46
2023/03/22 00:19:00;;;;;;;;;;;20.90;33.60;;;;;;8335845;28;19924;-44
2023/03/22 00:23:00;;;;;;;;;;;20.90;33.60;;;;;;8335557;28;21115;-43
2023/03/22 00:27:01;;;;;;;;;;;20.90;33.60;;;;;;8336104;28;20328;-43
2023/03/22 00:31:02;;;;;;;;;;;20.90;33.60;;;;;;8335514;28;19917;-44
2023/03/22 00:35:06;;;;;;;;;;;20.90;33.60;;;;;;8334867;28;19925;-43
2023/03/22 00:39:06;;;;;;;;;;;20.90;33.60;;;;;;8335581;28;20003;-44
2023/03/22 00:43:07;;;;;;;;;;;20.90;33.60;;;;;;8335123;28;19963;-44
2023/03/22 00:47:07;;;;;;;;;;;20.90;33.60;;;;;;8334934;28;19944;-43
2023/03/22 00:51:08;;;;;;;;;;;20.90;33.60;;;;;;8334845;28;20384;-44
2023/03/22 00:55:09;;;;;;;;;;;20.80;33.60;;;;;;8334832;28;19929;-43
2023/03/22 00:59:10;;;;;;;;;;;20.80;33.70;;;;;;8334323;28;19918;-44
2023/03/22 01:03:12;;;;;;;;;;;20.80;33.70;;;;;;8334810;28;20285;-44
2023/03/22 01:07:20;;;;;;;;;;;20.80;33.70;;;;;;8334832;28;19913;-44
2023/03/22 01:11:20;;;;;;;;;;;20.80;33.70;;;;;;8334741;28;20373;-43
2023/03/22 01:15:22;;;;;;;;;;;20.70;33.60;;;;;;8316365;28;20535;-44
2023/03/22 01:19:22;;;;;;;;;;;20.70;33.70;;;;;;8334241;28;20366;-44
2023/03/22 01:23:23;;;;;;;;;;;20.70;33.60;;;;;;8332910;28;19963;-44
2023/03/22 01:27:23;;;;;;;;;;;20.70;33.60;;;;;;8334068;28;20417;-44
2023/03/22 01:31:24;;;;;;;;;;;20.70;33.70;;;;;;8333828;28;19924;-44
2023/03/22 01:35:24;;;;;;;;;;;20.70;33.70;;;;;;8333137;28;19933;-45
2023/03/22 01:39:26;;;;;;;;;;;20.70;33.70;;;;;;8333484;28;19924;-45
2023/03/22 01:43:26;;;;;;;;;;;20.70;33.70;;;;;;8333565;28;19917;-44
2023/03/22 01:47:27;;;;;;;;;;;20.60;33.70;;;;;;8333121;28;19928;-45
2023/03/22 01:51:27;;;;;;;;;;;20.60;33.70;;;;;;8333373;28;20015;-44
2023/03/22 01:55:28;;;;;;;;;;;20.60;33.60;;;;;;8333015;28;19929;-44
2023/03/22 01:59:29;;;;;;;;;;;20.60;33.60;;;;;;8332377;28;19921;-44
2023/03/22 02:03:53;;;;;;;;;;;20.60;33.60;;;;;;8332695;28;19921;-44
2023/03/22 02:07:54;;;;;;;;;;;20.60;33.70;;;;;;8285823;28;19920;-45
2023/03/22 02:12:00;;;;;;;;;;;20.60;33.70;;;;;;8332722;28;19952;-45
2023/03/22 02:16:18;;;;;;;;;;;20.60;33.70;;;;;;8332010;28;19925;-44
2023/03/22 02:20:27;;;;;;;;;;;20.50;33.60;;;;;;8331422;28;19917;-43
2023/03/22 02:24:45;;;;;;;;;;;20.50;33.70;;;;;;8332201;28;20028;-43
2023/03/22 02:28:55;;;;;;;;;;;20.50;33.70;;;;;;8331493;28;19960;-44
2023/03/22 02:33:16;;;;;;;;;;;20.50;34.30;;;;;;8332031;28;20390;-44
2023/03/22 02:37:22;;;;;;;;;;;20.50;33.60;;;;;;8299008;28;19925;-44
2023/03/22 02:41:30;;;;;;;;;;;20.50;33.60;;;;;;8307777;28;20286;-43
2023/03/22 02:45:33;;;;;;;;;;;20.50;33.60;;;;;;8331309;28;20004;-44
2023/03/22 02:49:48;;;;;;;;;;;20.50;33.60;;;;;;8331236;28;19921;-44
2023/03/22 02:53:55;;;;;;;;;;;20.40;33.60;;;;;;8330994;28;20024;-44
2023/03/22 02:58:03;;;;;;;;;;;20.40;33.60;;;;;;8331064;28;19975;-44
2023/03/22 03:02:05;;;;;;;;;;;20.40;33.60;;;;;;8312838;28;19968;-44
2023/03/22 03:06:11;;;;;;;;;;;20.40;33.60;;;;;;8330788;28;19917;-43
2023/03/22 03:10:14;;;;;;;;;;;20.40;33.70;;;;;;8330822;28;19919;-44
2023/03/22 03:14:21;;;;;;;;;;;20.40;33.60;;;;;;8329881;28;19924;-44
2023/03/22 03:18:45;;;;;;;;;;;20.30;33.60;;;;;;8340547;28;19960;-44
2023/03/22 03:22:52;;;;;;;;;;;20.40;33.60;;;;;;8330073;28;19921;-45
2023/03/22 03:27:01;;;;;;;;;;;20.30;33.60;;;;;;8330561;28;20294;-45
2023/03/22 03:31:06;;;;;;;;;;;20.30;33.60;;;;;;8330115;28;19921;-45
2023/03/22 03:35:21;;;;;;;;;;;20.30;33.60;;;;;;8329475;28;19925;-44
2023/03/22 03:39:22;;;;;;;;;;;20.30;33.60;;;;;;8332755;28;19956;-45
2023/03/22 03:43:24;;;;;;;;;;;20.30;33.60;;;;;;8330196;28;20470;-45
2023/03/22 03:47:27;;;;;;;;;;;20.30;33.60;;;;;;8330848;28;19917;-44
2023/03/22 03:51:27;;;;;;;;;;;20.30;33.60;;;;;;8337020;28;20374;-45
2023/03/22 03:55:29;;;;;;;;;;;20.20;33.60;;;;;;8336534;28;19951;-45
2023/03/22 03:59:30;;;;;;;;;;;20.20;33.60;;;;;;8335958;28;19948;-44
2023/03/22 04:03:30;;;;;;;;;;;20.20;33.60;;;;;;8336477;28;19921;-43
2023/03/22 04:07:30;;;;;;;;;;;20.20;33.60;;;;;;8336396;28;20348;-45
2023/03/22 04:11:31;;;;;;;;;;;20.20;33.60;;;;;;8335736;28;19971;-44
2023/03/22 04:15:31;;;;;;;;;;;20.20;33.50;;;;;;8335960;28;19921;-44
2023/03/22 04:19:32;;;;;;;;;;;20.20;33.60;;;;;;8336007;28;20322;-44
2023/03/22 04:23:32;;;;;;;;;;;20.20;33.60;;;;;;8335310;28;19921;-44
2023/03/22 04:27:33;;;;;;;;;;;20.20;33.60;;;;;;8335596;28;20259;-44
2023/03/22 04:31:35;;;;;;;;;;;20.20;33.50;;;;;;8335707;28;19920;-44
2023/03/22 04:35:36;;;;;;;;;;;20.20;33.60;;;;;;8334733;28;20228;-46
2023/03/22 04:39:36;;;;;;;;;;;20.20;33.50;;;;;;8335651;28;19913;-44
2023/03/22 04:43:38;;;;;;;;;;;20.20;34.00;;;;;;8335476;28;19921;-44
2023/03/22 04:47:38;;;;;;;;;;;20.20;34.00;;;;;;8334973;28;19924;-44
2023/03/22 04:51:39;;;;;;;;;;;20.20;33.50;;;;;;8335500;28;19925;-44
2023/03/22 04:55:39;;;;;;;;;;;20.20;33.50;;;;;;8334375;28;19921;-43
2023/03/22 04:59:40;;;;;;;;;;;20.20;33.50;;;;;;8334851;28;19913;-44
2023/03/22 05:03:41;;;;;;;;;;;20.20;33.40;;;;;;8334921;28;19967;-44
2023/03/22 05:07:42;;;;;;;;;;;20.20;33.50;;;;;;8316336;28;19960;-43
2023/03/22 05:11:44;;;;;;;;;;;20.20;33.50;;;;;;8322782;28;22305;-43
2023/03/22 05:15:46;;;;;;;;;;;20.20;33.40;;;;;;8334351;28;19921;-44
2023/03/22 05:19:47;;;;;;;;;;;20.30;33.50;;;;;;8333468;28;19917;-44
2023/03/22 05:23:48;;;;;;;;;;;20.40;33.50;;;;;;8316227;28;19913;-44
2023/03/22 05:27:49;;;;;;;;;;;20.50;33.30;;;;;;8333872;28;19949;-45
2023/03/22 05:31:49;;;;;;;;;;;20.60;33.30;;;;;;8315467;28;19924;-45
2023/03/22 05:35:50;;;;;;;;;;;20.70;33.20;;;;;;8333644;28;20351;-44
2023/03/22 05:39:51;;;;;;;;;;;20.70;33.20;;;;;;8333600;28;19920;-43
2023/03/22 05:43:51;;;;;;;;;;;20.80;33.20;;;;;;8332856;28;20362;-44
2023/03/22 05:47:52;;;;;;;;;;;20.80;33.10;;;;;;8333416;28;19917;-45
2023/03/22 05:51:52;;;;;;;;;;;20.80;33.00;;;;;;8333179;28;19925;-44
2023/03/22 05:55:56;;;;;;;;;;;20.90;33.00;;;;;;8332306;28;20032;-44
2023/03/22 05:59:57;;;;;;;;;;;20.90;33.10;;;;;;8333077;28;20363;-44
2023/03/22 06:03:57;;;;;;;;;;;20.90;33.10;;;;;;8333014;28;19929;-43
2023/03/22 06:07:58;;;;;;;;;;;20.90;33.10;;;;;;8332165;28;19925;-43
2023/03/22 06:11:58;;;;;;;;;;;20.90;33.20;;;;;;8331960;28;19986;-44
2023/03/22 06:16:00;;;;;;;;;;;20.90;33.10;;;;;;8332203;28;19925;-44
2023/03/22 06:20:08;;;;;;;;;;;20.90;33.10;;;;;;8331773;28;19921;-42
2023/03/22 06:24:08;;;;;;;;;;;20.90;33.10;;;;;;8339152;28;19913;-43
2023/03/22 06:28:09;;;;;;;;;;;20.80;33.10;;;;;;8331946;28;19948;-44
2023/03/22 06:32:10;;;;;;;;;;;20.80;33.10;;;;;;8331231;28;19921;-43
2023/03/22 06:36:10;;;;;;;;;;;20.90;33.10;;;;;;8331444;28;20008;-44
2023/03/22 06:40:11;;;;;;;;;;;20.90;32.80;;;;;;8331426;28;19914;-44
2023/03/22 06:44:11;;;;;;;;;;;21.00;32.70;;;;;;8331094;28;19917;-43
2023/03/22 06:48:12;;;;;;;;;;;21.00;32.70;;;;;;8331318;28;19940;-43
2023/03/22 06:52:12;;;;;;;;;;;21.00;32.70;;;;;;8331360;28;20228;-44
2023/03/22 06:56:13;;;;;;;;;;;21.00;32.70;;;;;;8330552;28;19925;-44
2023/03/22 07:00:14;;;;;;;;;;;21.00;32.80;;;;;;8330914;28;19919;-47
2023/03/22 07:04:14;;;;;;;;;;;20.90;32.80;;;;;;8331045;28;20382;-44
2023/03/22 07:08:15;;;;;;;;;;;20.90;32.90;;;;;;8330296;28;19917;-45
2023/03/22 07:12:17;;;;;;;;;;;20.90;32.90;;;;;;8330762;28;19917;-45
2023/03/22 07:16:17;;;;;;;;;;;20.90;33.00;;;;;;8330358;28;20370;-44
2023/03/22 07:20:18;;;;;;;;;;;20.90;32.90;;;;;;8329744;28;19967;-45
2023/03/22 07:24:19;;;;;;;;;;;20.90;32.90;;;;;;8329517;28;19913;-45
2023/03/22 07:28:19;;;;;;;;;;;21.00;33.00;;;;;;8330338;28;19921;-45
2023/03/22 07:32:20;;;;;;;;;;;21.00;33.00;;;;;;8329671;28;19940;-45
2023/03/22 07:36:22;;;;;;;;;;;21.00;33.00;;;;;;8330123;28;19957;-45
2023/03/22 07:40:24;;;;;;;;;;;21.10;32.80;;;;;;8329921;28;19982;-44
2023/03/22 07:44:25;;;;;;;;;;;21.10;32.80;;;;;;8329771;28;19917;-43
2023/03/22 07:48:27;;;;;;;;;;;21.10;32.70;;;;;;8330024;28;19970;-44
2023/03/22 07:52:28;;;;;;;;;;;21.10;32.70;;;;;;8329923;28;20003;-45
2023/03/22 07:56:28;;;;;;;;;;;21.10;32.80;;;;;;8329084;28;19936;-45
2023/03/22 08:00:29;;;;;;;;;;;21.10;32.90;;;;;;8329518;28;19949;-45
2023/03/22 08:04:29;;;;;;;;;;;21.10;33.00;;;;;;8329705;28;19948;-44
2023/03/22 08:08:30;;;;;;;;;;;21.00;33.00;;;;;;8329111;28;20416;-43
2023/03/22 08:12:31;;;;;;;;;;;21.00;33.00;;;;;;8328704;28;19947;-45
2023/03/22 08:16:31;;;;;;;;;;;21.00;33.10;;;;;;8311424;28;19921;-44
2023/03/22 08:20:32;;;;;;;;;;;21.00;33.10;;;;;;8328975;28;19917;-44
2023/03/22 08:24:33;;;;;;;;;;;21.00;33.20;;;;;;8329873;28;20005;-44
2023/03/22 08:28:34;;;;;;;;;;;20.90;33.10;;;;;;8329564;28;19925;-44
2023/03/22 08:32:35;;;;;;;;;;;20.90;33.20;;;;;;8329797;28;20003;-45
2023/03/22 08:36:36;;;;;;;;;;;20.90;33.20;;;;;;8335250;28;19932;-44
2023/03/22 08:40:37;;;;;;;;;;;21.00;33.20;;;;;;8335401;28;19940;-45
2023/03/22 08:44:37;;;;;;;;;;;20.90;33.30;;;;;;8335037;28;19923;-45
2023/03/22 08:48:40;;;;;;;;;;;20.90;33.20;;;;;;8335284;28;19997;-44
2023/03/22 08:52:41;;;;;;;;;;;20.90;33.30;;;;;;8334341;28;19913;-44
2023/03/22 08:56:41;;;;;;;;;;;20.90;33.30;;;;;;8334753;28;19964;-44
2023/03/22 09:00:42;;;;;;;;;;;20.90;33.30;;;;;;8334614;28;19920;-44
2023/03/22 09:04:42;;;;;;;;;;;20.90;33.30;;;;;;8334069;28;20012;-43
2023/03/22 09:08:43;;;;;;;;;;;20.90;33.30;;;;;;8334617;28;20267;-45
2023/03/22 09:12:43;;;;;;;;;;;20.90;33.30;;;;;;8334331;28;19919;-44
2023/03/22 09:16:44;;;;;;;;;;;20.90;33.30;;;;;;8333701;28;19921;-45
2023/03/22 09:20:45;;;;;;;;;;;20.90;33.30;;;;;;8334159;28;19920;-44
2023/03/22 09:24:45;;;;;;;;;;;20.90;33.20;;;;;;8334148;28;19921;-44
2023/03/22 09:28:46;;;;;;;;;;;20.90;33.20;;;;;;8333185;28;19952;-43
2023/03/22 09:32:46;;;;;;;;;;;21.00;33.30;;;;;;8333947;28;19940;-45
2023/03/22 09:36:47;;;;;;;;;;;20.90;33.30;;;;;;8333307;28;19944;-44
2023/03/22 09:41:16;;;;;;;;;;;21.00;33.30;;;;;;8333254;28;19971;-45
2023/03/22 09:45:19;;;;;;;;;;;21.00;33.30;;;;;;8282482;28;19917;-44
2023/03/22 09:49:22;;;;;;;;;;;21.00;33.30;;;;;;8328725;28;19921;-45
2023/03/22 09:53:25;;;;;;;;;;;21.00;33.30;;;;;;8332618;28;19917;-45
2023/03/22 09:57:31;;;;;;;;;;;21.00;33.30;;;;;;8333259;28;19921;-45
2023/03/22 10:01:33;;;;;;;;;;;21.00;33.30;;;;;;8333020;28;19921;-45
2023/03/22 10:05:38;;;;;;;;;;;21.00;33.30;;;;;;8332257;28;19959;-46
2023/03/22 10:09:59;;;;;;;;;;;21.00;33.30;;;;;;8332383;28;19917;-46
2023/03/22 10:14:18;;;;;;;;;;;20.90;33.30;;;;;;8332030;28;19925;-45
2023/03/22 10:18:23;;;;;;;;;;;21.00;33.40;;;;;;8332200;28;19925;-45
2023/03/22 10:22:28;;;;;;;;;;;21.00;33.30;;;;;;8332335;28;19924;-44
2023/03/22 10:26:39;;;;;;;;;;;21.00;33.30;;;;;;8313761;28;19925;-44
2023/03/22 10:30:40;;;;;;;;;;;21.00;33.30;;;;;;8332254;28;20432;-43
2023/03/22 10:34:42;;;;;;;;;;;21.00;33.30;;;;;;8331199;28;19947;-41
2023/03/22 10:38:45;;;;;;;;;;;21.00;33.30;;;;;;8331791;28;20378;-46
2023/03/22 10:42:54;;;;;;;;;;;21.00;33.30;;;;;;8331643;28;19921;-43
2023/03/22 10:46:56;;;;;;;;;;;21.00;33.20;;;;;;8330895;28;19920;-45
2023/03/22 10:50:57;;;;;;;;;;;21.10;33.30;;;;;;8331449;28;19920;-44
2023/03/22 10:54:58;;;;;;;;;;;21.10;33.30;;;;;;8331157;28;20329;-45
2023/03/22 10:58:58;;;;;;;;;;;21.10;33.30;;;;;;8330198;28;19963;-45
2023/03/22 11:02:59;;;;;;;;;;;21.10;33.30;;;;;;8331099;28;20388;-45
2023/03/22 11:06:59;;;;;;;;;;;21.10;33.30;;;;;;8330870;28;19917;-45
2023/03/22 11:11:04;;;;;;;;;;;21.10;33.20;;;;;;8328957;28;19925;-46
2023/03/22 11:15:05;;;;;;;;;;;21.20;33.20;;;;;;8330467;28;19929;-45
2023/03/22 11:19:05;;;;;;;;;;;21.20;33.20;;;;;;8330622;28;20286;-45
2023/03/22 11:23:06;;;;;;;;;;;21.20;33.20;;;;;;8330493;28;19917;-46
2023/03/22 11:27:17;;;;;;;;;;;21.20;33.20;;;;;;8330428;28;19913;-45
2023/03/22 11:31:19;;;;;;;;;;;21.20;33.20;;;;;;8330895;28;19987;-44
2023/03/22 11:35:21;;;;;;;;;;;21.20;33.20;;;;;;8329669;28;20008;-45
2023/03/22 11:39:23;;;;;;;;;;;21.20;33.20;;;;;;8330097;28;19917;-45
2023/03/22 11:43:26;;;;;;;;;;;21.20;33.10;;;;;;8330116;28;19921;-44
2023/03/22 11:47:31;;;;;;;;;;;21.30;33.10;;;;;;8329650;28;19924;-45
2023/03/22 11:51:34;;;;;;;;;;;21.30;33.10;;;;;;8330144;28;19913;-47
2023/03/22 11:55:35;;;;;;;;;;;21.30;33.10;;;;;;8329556;28;19932;-45
2023/03/22 11:59:36;;;;;;;;;;;21.30;33.10;;;;;;8329085;28;19925;-45
2023/03/22 12:03:38;;;;;;;;;;;21.30;33.00;;;;;;8329571;28;20008;-45
2023/03/22 12:07:40;;;;;;;;;;;21.30;33.00;;;;;;8329769;28;20016;-46
2023/03/22 12:11:43;;;;;;;;;;;21.30;33.00;;;;;;8336289;28;19917;-46
2023/03/22 12:15:47;;;;;;;;;;;21.30;33.00;;;;;;8335948;28;19971;-45
2023/03/22 12:20:05;;;;;;;;;;;21.30;33.00;;;;;;8335433;28;19917;-47
2023/03/22 12:24:14;;;;;;;;;;;21.30;32.90;;;;;;8336125;28;20293;-45
2023/03/22 12:28:17;;;;;;;;;;;21.40;33.00;;;;;;8335896;28;19924;-45
2023/03/22 12:32:20;;;;;;;;;;;21.40;32.90;;;;;;8335171;28;19913;-46
2023/03/22 12:36:34;;;;;;;;;;;21.40;32.90;;;;;;8335795;28;20349;-45
2023/03/22 12:40:37;;;;;;;;;;;21.40;32.90;;;;;;8335326;28;20289;-45
2023/03/22 12:44:39;;;;;;;;;;;21.40;32.90;;;;;;8334662;28;20373;-46
2023/03/22 12:48:59;;;;;;;;;;;21.40;32.90;;;;;;8335136;28;19924;-44
2023/03/22 12:53:01;;;;;;;;;;;21.40;32.90;;;;;;8335157;28;19991;-44
2023/03/22 12:57:01;;;;;;;;;;;21.40;32.90;;;;;;8334808;28;19921;-44
2023/03/22 13:01:17;;;;;;;;;;;21.50;32.90;;;;;;8334455;28;19939;-45
2023/03/22 13:05:18;;;;;;;;;;;21.40;32.90;;;;;;8334250;28;19917;-47
2023/03/22 13:09:33;;;;;;;;;;;21.50;32.90;;;;;;8334607;28;19960;-46
2023/03/22 13:13:44;;;;;;;;;;;21.50;32.90;;;;;;8334189;28;19971;-45
2023/03/22 13:17:45;;;;;;;;;;;21.50;33.00;;;;;;8334333;28;19925;-46
2023/03/22 13:21:47;;;;;;;;;;;21.50;33.00;;;;;;8332834;28;20391;-43
2023/03/22 13:25:57;;;;;;;;;;;21.50;32.90;;;;;;8333225;28;19917;-48
2023/03/22 13:29:58;;;;;;;;;;;21.50;33.00;;;;;;8334063;28;19917;-45
2023/03/22 13:34:00;;;;;;;;;;;21.50;32.90;;;;;;8333581;28;19917;-44
2023/03/22 13:38:01;;;;;;;;;;;21.50;33.00;;;;;;8333103;28;21069;-45
2023/03/22 13:42:07;;;;;;;;;;;21.50;32.90;;;;;;8333568;28;20000;-44
2023/03/22 13:46:07;;;;;;;;;;;21.50;32.90;;;;;;8333346;28;20294;-42
2023/03/22 13:50:20;;;;;;;;;;;21.50;32.90;;;;;;8332465;28;19917;-45
2023/03/22 13:54:23;;;;;;;;;;;21.50;32.90;;;;;;8315032;28;19917;-44
2023/03/22 13:58:23;;;;;;;;;;;21.50;32.90;;;;;;8332632;28;19968;-43
2023/03/22 14:02:28;;;;;;;;;;;21.50;33.00;;;;;;8332281;28;19968;-46
2023/03/22 14:06:34;;;;;;;;;;;21.50;32.90;;;;;;8332561;28;20293;-45
2023/03/22 14:10:40;;;;;;;;;;;21.50;32.90;;;;;;8308757;28;19951;-46
2023/03/22 14:14:41;;;;;;;;;;;21.50;32.90;;;;;;8315488;28;19921;-46
2023/03/22 14:18:45;;;;;;;;;;;21.50;33.50;;;;;;8334088;28;19925;-46
2023/03/22 14:22:49;;;;;;;;;;;21.50;32.90;;;;;;8364393;28;19928;-45
2023/03/22 14:26:51;;;;;;;;;;;21.50;32.90;;;;;;8331985;28;19963;-45
2023/03/22 14:30:51;;;;;;;;;;;21.50;32.90;;;;;;8331210;28;19960;-46
2023/03/22 14:34:55;;;;;;;;;;;21.50;32.90;;;;;;8330917;28;19920;-44
2023/03/22 14:39:02;;;;;;;;;;;21.60;33.00;;;;;;8331597;28;20252;-44
2023/03/22 14:43:12;;;;;;;;;;;21.50;32.90;;;;;;8331263;28;19917;-44
2023/03/22 14:47:16;;;;;;;;;;;21.50;33.50;;;;;;8330643;28;19960;-44
2023/03/22 14:51:19;;;;;;;;;;;21.50;32.90;;;;;;8330561;28;19917;-45
2023/03/22 14:55:23;;;;;;;;;;;21.60;33.00;;;;;;8331027;28;19975;-46
2023/03/22 14:59:25;;;;;;;;;;;21.50;32.90;;;;;;8330548;28;19940;-46
2023/03/22 15:03:27;;;;;;;;;;;21.60;33.00;;;;;;8330733;28;19928;-44
2023/03/22 15:07:28;;;;;;;;;;;21.50;32.90;;;;;;8331126;28;20310;-43
2023/03/22 15:11:29;;;;;;;;;;;21.50;32.90;;;;;;8330041;28;19953;-45
2023/03/22 15:15:34;;;;;;;;;;;21.50;32.90;;;;;;8330608;28;20421;-44
2023/03/22 15:19:45;;;;;;;;;;;21.50;32.90;;;;;;8330489;28;20330;-44
2023/03/22 15:23:47;;;;;;;;;;;21.60;33.00;;;;;;8329996;28;19967;-43
2023/03/22 15:27:48;;;;;;;;;;;21.60;33.00;;;;;;8330497;28;19920;-44
2023/03/22 15:31:48;;;;;;;;;;;21.50;33.00;;;;;;8329629;28;19918;-45
2023/03/22 15:35:49;;;;;;;;;;;21.60;33.00;;;;;;8329914;28;20303;-45
2023/03/22 15:39:49;;;;;;;;;;;21.60;33.00;;;;;;8330013;28;20360;-45
2023/03/22 15:44:03;;;;;;;;;;;21.60;33.00;;;;;;8328761;28;19924;-44
2023/03/22 15:48:10;;;;;;;;;;;21.60;33.00;;;;;;8330222;28;19913;-45
2023/03/22 15:52:10;;;;;;;;;;;21.60;32.90;;;;;;8329921;28;19924;-45
2023/03/22 15:56:20;;;;;;;;;;;21.60;32.90;;;;;;8329162;28;20382;-45
2023/03/22 16:00:21;;;;;;;;;;;21.50;32.90;;;;;;8329641;28;19925;-44
2023/03/22 16:04:22;;;;;;;;;;;21.60;33.00;;;;;;8329622;28;19954;-44
2023/03/22 16:08:23;;;;;;;;;;;21.60;33.00;;;;;;8329503;28;20386;-44
2023/03/22 16:12:24;;;;;;;;;;;21.50;32.90;;;;;;8329978;28;19921;-45
2023/03/22 16:16:24;;;;;;;;;;;21.60;33.00;;;;;;8329438;28;19925;-47
2023/03/22 16:20:31;;;;;;;;;;;21.60;32.80;;;;;;8328975;28;19917;-45
2023/03/22 16:24:31;;;;;;;;;;;21.70;32.90;;;;;;8329334;28;20026;-45
2023/03/22 16:28:32;;;;;;;;;;;21.80;32.90;;;;;;8329752;28;19914;-44
2023/03/22 16:32:32;;;;;;;;;;;21.90;32.80;;;;;;8328912;28;20481;-44
2023/03/22 16:36:33;;;;;;;;;;;21.90;32.70;;;;;;8329227;28;19925;-44
2023/03/22 16:40:34;;;;;;;;;;;21.90;32.70;;;;;;8329008;28;20018;-45
2023/03/22 16:44:34;;;;;;;;;;;22.00;32.70;;;;;;8328583;28;19917;-47
2023/03/22 16:48:36;;;;;;;;;;;22.00;32.70;;;;;;8329184;28;19975;-45
2023/03/22 16:52:37;;;;;;;;;;;22.00;32.70;;;;;;8329041;28;19925;-45
2023/03/22 16:56:37;;;;;;;;;;;22.00;32.70;;;;;;8332668;28;20302;-45
2023/03/22 17:00:38;;;;;;;;;;;22.00;32.70;;;;;;8322529;28;19925;-44
2023/03/22 17:04:39;;;;;;;;;;;22.10;32.80;;;;;;8346907;28;19994;-44
2023/03/22 17:08:40;;;;;;;;;;;22.00;32.70;;;;;;8332359;28;19995;-44
2023/03/22 17:12:41;;;;;;;;;;;22.00;32.70;;;;;;8326932;28;19928;-44
2023/03/22 17:16:42;;;;;;;;;;;22.10;32.70;;;;;;8325183;28;19925;-46
2023/03/22 17:20:44;;;;;;;;;;;22.00;32.60;;;;;;8320092;28;19924;-44
2023/03/22 17:24:44;;;;;;;;;;;22.00;32.70;;;;;;8316918;28;20004;-44
2023/03/22 17:28:45;;;;;;;;;;;22.00;32.70;;;;;;8325529;28;19921;-44
2023/03/22 17:32:45;;;;;;;;;;;22.00;32.70;;;;;;8330058;28;20012;-44
2023/03/22 17:36:46;;;;;;;;;;;21.90;32.80;;;;;;8319856;28;20391;-44
2023/03/22 17:40:47;;;;;;;;;;;21.90;32.80;;;;;;8329047;28;19996;-43
2023/03/22 17:44:47;;;;;;;;;;;21.90;32.90;;;;;;8330536;28;19925;-44
2023/03/22 17:48:47;;;;;;;;;;;21.90;32.90;;;;;;8332534;28;19913;-43
2023/03/22 17:52:48;;;;;;;;;;;21.90;32.90;;;;;;8313156;28;20004;-44
2023/03/22 17:56:48;;;;;;;;;;;21.90;32.90;;;;;;8314769;28;19925;-44
2023/03/22 18:00:50;;;;;;;;;;;21.90;32.90;;;;;;8332907;28;19917;-44
2023/03/22 18:04:50;;;;;;;;;;;21.80;33.50;;;;;;8329105;28;19921;-45
2023/03/22 18:08:51;;;;;;;;;;;21.80;33.00;;;;;;8331525;28;20370;-44
2023/03/22 18:12:52;;;;;;;;;;;21.80;33.00;;;;;;8331125;28;20337;-44
2023/03/22 18:16:53;;;;;;;;;;;21.80;33.10;;;;;;8324955;28;19921;-44
2023/03/22 18:20:59;;;;;;;;;;;21.80;33.10;;;;;;8326060;28;20069;-44
2023/03/22 18:25:00;;;;;;;;;;;21.80;33.10;;;;;;8327624;28;19917;-44
2023/03/22 18:29:00;;;;;;;;;;;21.80;33.10;;;;;;8314156;28;20000;-45
2023/03/22 18:33:01;;;;;;;;;;;21.90;33.10;;;;;;8327618;28;20340;-45
2023/03/22 18:37:01;;;;;;;;;;;21.90;33.10;;;;;;8328059;28;20362;-44
2023/03/22 18:41:06;;;;;;;;;;;21.90;33.00;;;;;;8325802;28;19948;-44
2023/03/22 18:45:08;;;;;;;;;;;21.90;32.90;;;;;;8326119;28;19917;-42
2023/03/22 18:49:09;;;;;;;;;;;22.00;32.90;;;;;;8311900;28;19917;-44
2023/03/22 18:53:10;;;;;;;;;;;22.00;32.90;;;;;;8328697;28;19956;-45
2023/03/22 18:57:10;;;;;;;;;;;22.00;32.90;;;;;;8331267;28;19929;-43
2023/03/22 19:01:11;;;;;;;;;;;22.00;32.90;;;;;;8331107;28;19929;-44
2023/03/22 19:05:11;;;;;;;;;;;22.00;32.90;;;;;;8330557;28;19970;-44
2023/03/22 19:09:11;;;;;;;;;;;22.00;33.00;;;;;;8331088;28;20289;-44
2023/03/22 19:13:12;;;;;;;;;;;22.00;33.00;;;;;;8330795;28;19917;-45
2023/03/22 19:17:13;;;;;;;;;;;22.00;33.00;;;;;;8330131;28;20291;-45
2023/03/22 19:21:13;;;;;;;;;;;22.00;33.00;;;;;;8330246;28;19924;-44
2023/03/22 19:25:14;;;;;;;;;;;22.00;33.00;;;;;;8330434;28;20357;-45
2023/03/22 19:29:14;;;;;;;;;;;21.90;33.10;;;;;;8330283;28;20266;-44
2023/03/22 19:33:15;;;;;;;;;;;21.90;33.10;;;;;;8330517;28;20290;-45
2023/03/22 19:37:16;;;;;;;;;;;21.90;33.10;;;;;;8330345;28;20002;-43
2023/03/22 19:41:17;;;;;;;;;;;21.90;33.10;;;;;;8329832;28;20448;-44
2023/03/22 19:45:17;;;;;;;;;;;21.90;33.10;;;;;;8330458;28;19917;-44
2023/03/22 19:49:19;;;;;;;;;;;21.80;33.10;;;;;;8330462;28;19924;-44
2023/03/22 19:53:20;;;;;;;;;;;21.90;33.10;;;;;;8329743;28;20008;-44
2023/03/22 19:57:20;;;;;;;;;;;21.90;33.10;;;;;;8330370;28;20325;-44
2023/03/22 20:01:21;;;;;;;;;;;21.80;33.10;;;;;;8329974;28;19975;-44
2023/03/22 20:05:22;;;;;;;;;;;21.80;33.10;;;;;;8328229;28;19917;-45
2023/03/22 20:09:23;;;;;;;;;;;21.80;33.10;;;;;;8329988;28;20325;-44
2023/03/22 20:13:24;;;;;;;;;;;21.80;33.10;;;;;;8329658;28;19948;-44
2023/03/22 20:17:25;;;;;;;;;;;21.80;33.10;;;;;;8329115;28;19929;-43
2023/03/22 20:21:26;;;;;;;;;;;21.80;33.20;;;;;;8329844;28;20294;-44
2023/03/22 20:25:27;;;;;;;;;;;21.80;33.10;;;;;;8329414;28;19913;-44
2023/03/22 20:29:27;;;;;;;;;;;21.80;33.10;;;;;;8330559;28;19936;-44
2023/03/22 20:33:28;;;;;;;;;;;21.90;33.10;;;;;;8335676;28;20936;-44
2023/03/22 20:37:28;;;;;;;;;;;21.90;33.10;;;;;;8335625;28;19935;-43
2023/03/22 20:41:30;;;;;;;;;;;21.90;33.10;;;;;;8334985;28;20400;-44
2023/03/22 20:45:31;;;;;;;;;;;22.00;33.10;;;;;;8335297;28;20004;-44
2023/03/22 20:49:32;;;;;;;;;;;22.00;33.10;;;;;;8335561;28;19919;-44
2023/03/22 20:53:33;;;;;;;;;;;22.00;33.10;;;;;;8334557;28;20378;-44
2023/03/22 20:57:33;;;;;;;;;;;22.00;33.20;;;;;;8335075;28;19925;-44
2023/03/22 21:01:34;;;;;;;;;;;22.00;33.20;;;;;;8334731;28;19921;-43
2023/03/22 21:05:35;;;;;;;;;;;22.00;33.20;;;;;;8316515;28;20370;-45
2023/03/22 21:09:36;;;;;;;;;;;22.00;33.20;;;;;;8334742;28;19952;-45
2023/03/22 21:13:37;;;;;;;;;;;22.00;33.20;;;;;;8334423;28;20436;-44
2023/03/22 21:17:38;;;;;;;;;;;21.90;33.10;;;;;;8333743;28;20291;-43
2023/03/22 21:21:39;;;;;;;;;;;21.90;33.10;;;;;;8334043;28;19924;-44
2023/03/22 21:25:39;;;;;;;;;;;21.90;33.10;;;;;;8334022;28;19913;-44
2023/03/22 21:29:40;;;;;;;;;;;21.90;33.10;;;;;;8333728;28;19991;-44
2023/03/22 21:33:40;;;;;;;;;;;21.90;33.20;;;;;;8333905;28;20345;-44
2023/03/22 21:37:41;;;;;;;;;;;21.90;33.20;;;;;;8333232;28;19935;-43
2023/03/22 21:41:41;;;;;;;;;;;21.80;33.20;;;;;;8332478;28;20026;-45
2023/03/22 21:45:42;;;;;;;;;;;21.80;33.20;;;;;;8334195;28;20310;-42
2023/03/22 21:49:42;;;;;;;;;;;21.80;33.20;;;;;;8333202;28;20011;-44
2023/03/22 21:53:43;;;;;;;;;;;21.80;33.20;;;;;;8333256;28;20004;-45
2023/03/22 21:57:44;;;;;;;;;;;21.80;33.10;;;;;;8333072;28;19925;-44
2023/03/22 22:01:46;;;;;;;;;;;21.80;33.20;;;;;;8332579;28;19922;-44
2023/03/22 22:05:54;;;;;;;;;;;21.80;33.10;;;;;;8333689;28;20463;-44
2023/03/22 22:09:55;;;;;;;;;;;21.80;33.10;;;;;;8300253;28;20389;-44
2023/03/22 22:13:56;;;;;;;;;;;21.80;33.10;;;;;;8324766;28;19999;-46
2023/03/22 22:17:56;;;;;;;;;;;21.80;33.10;;;;;;8332568;28;19933;-43
2023/03/22 22:21:57;;;;;;;;;;;21.80;33.10;;;;;;8332379;28;19917;-45
2023/03/22 22:25:58;;;;;;;;;;;21.70;33.00;;;;;;8332189;28;20382;-44
2023/03/22 22:29:58;;;;;;;;;;;21.70;33.00;;;;;;8332556;28;19913;-43
2023/03/22 22:33:59;;;;;;;;;;;21.70;33.10;;;;;;8332159;28;19917;-44
2023/03/22 22:37:59;;;;;;;;;;;21.70;33.10;;;;;;8331555;28;19972;-45
2023/03/22 22:42:00;;;;;;;;;;;21.70;33.10;;;;;;8332101;28;19974;-45
2023/03/22 22:46:01;;;;;;;;;;;21.70;33.00;;;;;;8331999;28;19917;-44
2023/03/22 22:50:01;;;;;;;;;;;21.60;33.00;;;;;;8331167;28;19932;-44
2023/03/22 22:54:02;;;;;;;;;;;21.60;33.10;;;;;;8330954;28;19964;-45
2023/03/22 22:58:02;;;;;;;;;;;21.60;33.10;;;;;;8331316;28;20007;-44
2023/03/22 23:02:02;;;;;;;;;;;21.60;33.10;;;;;;8329773;28;20036;-44
2023/03/22 23:06:10;;;;;;;;;;;21.60;33.10;;;;;;8330055;28;19959;-44
2023/03/22 23:10:11;;;;;;;;;;;21.60;33.20;;;;;;8331135;28;20318;-46
2023/03/22 23:14:11;;;;;;;;;;;21.60;33.20;;;;;;8330285;28;19925;-44
2023/03/22 23:18:12;;;;;;;;;;;21.60;33.30;;;;;;8346139;28;19932;-44
2023/03/22 23:22:13;;;;;;;;;;;21.60;33.20;;;;;;8330715;28;19991;-43
2023/03/22 23:26:14;;;;;;;;;;;21.50;33.20;;;;;;8330464;28;20437;-43
2023/03/22 23:30:14;;;;;;;;;;;21.50;33.20;;;;;;8330848;28;19917;-43